createdAt,value
2018-11-14T00:01:14.007Z,101962
2018-11-14T00:03:42.838Z,101958
2018-11-14T00:06:11.693Z,101961
2018-11-14T00:08:41.259Z,101958
2018-11-14T00:11:10.165Z,101948
2018-11-14T00:13:39.022Z,101944
2018-11-14T00:16:07.866Z,101943
2018-11-14T00:18:37.471Z,101951
2018-11-14T00:21:06.322Z,101954
2018-11-14T00:23:35.151Z,101953
2018-11-14T00:26:04.719Z,101951
2018-11-14T00:28:33.614Z,101953
2018-11-14T00:31:03.119Z,101952
2018-11-14T00:33:31.963Z,101941
2018-11-14T00:36:00.793Z,101942
2018-11-14T00:38:29.635Z,101941
2018-11-14T00:40:58.489Z,101935
2018-11-14T00:43:27.311Z,101938
2018-11-14T00:45:56.890Z,101945
2018-11-14T00:48:25.725Z,101944
2018-11-14T00:50:54.553Z,101941
2018-11-14T00:53:23.370Z,101942
2018-11-14T00:55:52.224Z,101945
2018-11-14T00:58:21.050Z,101947
2018-11-14T01:00:50.630Z,101938
2018-11-14T01:03:19.454Z,101938
2018-11-14T01:05:48.295Z,101947
2018-11-14T01:08:17.122Z,101944
2018-11-14T01:10:45.970Z,101945
2018-11-14T01:13:14.947Z,101942
2018-11-14T01:15:43.634Z,101942
2018-11-14T01:18:12.462Z,101945
2018-11-14T01:20:41.286Z,101948
2018-11-14T01:23:10.114Z,101954
2018-11-14T01:25:39.174Z,101958
2018-11-14T01:28:07.769Z,101959
2018-11-14T01:30:36.606Z,101956
2018-11-14T01:33:05.439Z,101953
2018-11-14T01:35:34.267Z,101950
2018-11-14T01:38:03.083Z,101960
2018-11-14T01:40:32.655Z,101962
2018-11-14T01:43:01.480Z,101966
2018-11-14T01:45:31.051Z,101965
2018-11-14T01:47:59.890Z,101959
2018-11-14T01:50:28.717Z,101960
2018-11-14T01:52:57.551Z,101961
2018-11-14T01:55:27.124Z,101960
2018-11-14T01:57:55.955Z,101956
2018-11-14T02:00:25.515Z,101953
2018-11-14T02:02:54.337Z,101945
2018-11-14T02:05:23.160Z,101937
2018-11-14T02:07:51.992Z,101940
2018-11-14T02:10:20.833Z,101942
2018-11-14T02:12:49.653Z,101943
2018-11-14T02:15:18.541Z,101948
2018-11-14T02:17:47.374Z,101937
2018-11-14T02:20:16.943Z,101935
2018-11-14T02:22:45.790Z,101941
2018-11-14T02:25:14.633Z,101940
2018-11-14T02:27:43.456Z,101928
2018-11-14T02:30:13.045Z,101926
2018-11-14T02:32:41.889Z,101935
2018-11-14T02:35:10.732Z,101925
2018-11-14T02:37:40.303Z,101912
2018-11-14T02:40:09.134Z,101925
2018-11-14T02:42:38.573Z,101899
2018-11-14T02:45:07.419Z,101929
2018-11-14T02:47:36.997Z,101929
2018-11-14T02:50:05.832Z,101927
2018-11-14T02:52:34.667Z,101926
2018-11-14T02:55:03.502Z,101920
2018-11-14T02:57:33.079Z,101923
2018-11-14T03:00:01.904Z,101925
2018-11-14T03:02:30.741Z,101921
2018-11-14T03:04:59.595Z,101925
2018-11-14T03:07:28.420Z,101908
2018-11-14T03:09:57.249Z,101905
2018-11-14T03:12:26.147Z,101899
2018-11-14T03:14:54.916Z,101911
2018-11-14T03:17:23.750Z,101904
2018-11-14T03:19:52.579Z,101900
2018-11-14T03:22:21.414Z,101911
2018-11-14T03:24:50.246Z,101896
2018-11-14T03:27:19.072Z,101895
2018-11-14T03:29:48.665Z,101891
2018-11-14T03:32:17.509Z,101894
2018-11-14T03:34:46.347Z,101892
2018-11-14T03:37:15.942Z,101898
2018-11-14T03:39:44.761Z,101903
2018-11-14T03:42:13.619Z,101887
2018-11-14T03:44:42.441Z,101886
2018-11-14T03:47:11.272Z,101885
2018-11-14T03:49:40.095Z,101889
2018-11-14T03:52:08.931Z,101882
2018-11-14T03:54:37.762Z,101888
2018-11-14T03:57:06.597Z,101886
2018-11-14T03:59:35.436Z,101891
2018-11-14T04:02:04.264Z,101887
2018-11-14T04:04:33.117Z,101888
2018-11-14T04:07:02.547Z,101895
2018-11-14T04:09:32.189Z,101892
2018-11-14T04:12:00.972Z,101891
2018-11-14T04:14:29.801Z,101897
2018-11-14T04:16:58.622Z,101905
2018-11-14T04:19:27.458Z,101894
2018-11-14T04:21:56.283Z,101891
2018-11-14T04:24:25.856Z,101892
2018-11-14T04:26:54.689Z,101887
2018-11-14T04:29:23.532Z,101894
2018-11-14T04:31:52.369Z,101895
2018-11-14T04:34:21.208Z,101892
2018-11-14T04:36:50.041Z,101889
2018-11-14T04:39:19.635Z,101889
2018-11-14T04:41:48.460Z,101892
2018-11-14T04:44:17.297Z,101898
2018-11-14T04:46:46.128Z,101894
2018-11-14T04:49:14.952Z,101894
2018-11-14T04:51:43.781Z,101890
2018-11-14T04:54:12.622Z,101896
2018-11-14T04:56:41.472Z,101889
2018-11-14T04:59:10.311Z,101897
2018-11-14T05:01:39.157Z,101892
2018-11-14T05:04:07.994Z,101884
2018-11-14T05:06:36.823Z,101878
2018-11-14T05:09:06.423Z,101872
2018-11-14T05:11:35.996Z,101881
2018-11-14T05:14:04.839Z,101879
2018-11-14T05:16:33.680Z,101877
2018-11-14T05:19:02.529Z,101864
2018-11-14T05:21:31.365Z,101855
2018-11-14T05:24:00.211Z,101864
2018-11-14T05:26:29.027Z,101855
2018-11-14T05:28:57.856Z,101853
2018-11-14T05:31:26.711Z,101869
2018-11-14T05:33:55.553Z,101873
2018-11-14T05:36:24.387Z,101855
2018-11-14T05:38:53.229Z,101869
2018-11-14T05:41:22.060Z,101870
2018-11-14T05:43:50.900Z,101873
2018-11-14T05:46:19.744Z,101864
2018-11-14T05:48:48.597Z,101883
2018-11-14T05:51:17.436Z,101872
2018-11-14T05:53:46.282Z,101878
2018-11-14T05:56:15.119Z,101895
2018-11-14T05:58:43.962Z,101879
2018-11-14T06:01:12.811Z,101865
2018-11-14T06:03:41.664Z,101872
2018-11-14T06:06:10.494Z,101864
2018-11-14T06:08:40.079Z,101874
2018-11-14T06:11:08.923Z,101877
2018-11-14T06:13:37.751Z,101878
2018-11-14T06:16:06.610Z,101881
2018-11-14T06:18:35.435Z,101874
2018-11-14T06:21:04.290Z,101879
2018-11-14T06:23:33.147Z,101872
2018-11-14T06:26:02.717Z,101874
2018-11-14T06:28:31.558Z,101869
2018-11-14T06:31:00.405Z,101863
2018-11-14T06:33:29.235Z,101857
2018-11-14T06:35:58.068Z,101852
2018-11-14T06:38:26.901Z,101859
2018-11-14T06:40:55.736Z,101843
2018-11-14T06:43:24.579Z,101841
2018-11-14T06:45:53.425Z,101841
2018-11-14T06:48:22.262Z,101846
2018-11-14T06:50:51.100Z,101849
2018-11-14T06:53:19.935Z,101843
2018-11-14T06:55:48.759Z,101840
2018-11-14T06:58:17.596Z,101849
2018-11-14T07:00:46.444Z,101841
2018-11-14T07:03:15.285Z,101842
2018-11-14T07:05:44.272Z,101853
2018-11-14T07:08:12.955Z,101852
2018-11-14T07:10:42.527Z,101858
2018-11-14T07:13:11.375Z,101856
2018-11-14T07:15:40.221Z,101857
2018-11-14T07:18:09.063Z,101858
2018-11-14T07:20:37.905Z,101858
2018-11-14T07:23:06.744Z,101863
2018-11-14T07:25:35.586Z,101859
2018-11-14T07:28:04.430Z,101865
2018-11-14T07:30:33.269Z,101855
2018-11-14T07:33:02.102Z,101850
2018-11-14T07:35:30.942Z,101856
2018-11-14T07:37:59.822Z,101838
2018-11-14T07:40:28.606Z,101839
2018-11-14T07:42:57.438Z,101846
2018-11-14T07:45:26.280Z,101848
2018-11-14T07:47:55.141Z,101856
2018-11-14T07:50:23.982Z,101860
2018-11-14T07:52:52.827Z,101863
2018-11-14T07:55:21.694Z,101869
2018-11-14T07:57:50.524Z,101861
2018-11-14T08:00:20.104Z,101857
2018-11-14T08:02:48.937Z,101852
2018-11-14T08:05:17.765Z,101848
2018-11-14T08:07:46.622Z,101855
2018-11-14T08:10:15.445Z,101854
2018-11-14T08:12:44.278Z,101851
2018-11-14T08:15:13.114Z,101848
2018-11-14T08:17:41.950Z,101843
2018-11-14T08:20:10.813Z,101839
2018-11-14T08:22:39.666Z,101835
2018-11-14T08:25:08.555Z,101831
2018-11-14T08:27:37.320Z,101826
2018-11-14T08:30:06.169Z,101829
2018-11-14T08:32:34.994Z,101831
2018-11-14T08:35:03.836Z,101831
2018-11-14T08:37:32.678Z,101835
2018-11-14T08:40:01.515Z,101826
2018-11-14T08:42:30.359Z,101836
2018-11-14T08:44:59.200Z,101835
2018-11-14T08:47:28.030Z,101828
2018-11-14T08:49:56.867Z,101826
2018-11-14T08:52:25.953Z,101823
2018-11-14T08:54:54.751Z,101823
2018-11-14T08:57:23.589Z,101819
2018-11-14T08:59:52.427Z,101829
2018-11-14T09:02:21.268Z,101828
2018-11-14T09:04:50.112Z,101827
2018-11-14T09:07:18.952Z,101816
2018-11-14T09:09:48.524Z,101814
2018-11-14T09:12:17.447Z,101802
2018-11-14T09:14:46.234Z,101803
2018-11-14T09:17:15.039Z,101804
2018-11-14T09:19:44.620Z,101807
2018-11-14T09:22:13.473Z,101805
2018-11-14T09:24:42.310Z,101804
2018-11-14T09:27:11.884Z,101807
2018-11-14T09:29:40.713Z,101803
2018-11-14T09:32:09.561Z,101803
2018-11-14T09:34:38.408Z,101815
2018-11-14T09:37:09.095Z,101817
2018-11-14T09:39:37.292Z,101836
2018-11-14T09:42:06.144Z,101832
2018-11-14T09:44:34.986Z,101827
2018-11-14T09:47:04.573Z,101826
2018-11-14T09:49:33.369Z,101823
2018-11-14T09:52:02.206Z,101837
2018-11-14T09:54:31.032Z,101839
2018-11-14T09:56:59.918Z,101826
2018-11-14T09:59:28.684Z,101840
2018-11-14T10:01:57.604Z,101839
2018-11-14T10:04:26.452Z,101829
2018-11-14T10:06:55.288Z,101826
2018-11-14T10:09:24.855Z,101824
2018-11-14T10:11:53.683Z,101822
2018-11-14T10:14:23.253Z,101829
2018-11-14T10:16:52.088Z,101826
2018-11-14T10:19:20.936Z,101823
2018-11-14T10:21:49.764Z,101823
2018-11-14T10:24:19.340Z,101820
2018-11-14T10:26:48.184Z,101810
2018-11-14T10:29:17.034Z,101807
2018-11-14T10:31:45.931Z,101803
2018-11-14T10:34:14.730Z,101799
2018-11-14T10:36:43.576Z,101799
2018-11-14T10:39:12.405Z,101800
2018-11-14T10:41:41.231Z,101793
2018-11-14T10:44:10.069Z,101792
2018-11-14T10:46:39.642Z,101786
2018-11-14T10:49:08.474Z,101784
2018-11-14T10:51:38.038Z,101777
2018-11-14T10:54:06.873Z,101774
2018-11-14T10:56:36.460Z,101773
2018-11-14T10:59:05.297Z,101762
2018-11-14T11:01:34.133Z,101773
2018-11-14T11:04:02.976Z,101766
2018-11-14T11:06:31.806Z,101763
2018-11-14T11:09:00.652Z,101758
2018-11-14T11:11:29.485Z,101756
2018-11-14T11:13:58.372Z,101752
2018-11-14T11:16:27.160Z,101751
2018-11-14T11:18:56.584Z,101742
2018-11-14T11:21:26.166Z,101750
2018-11-14T11:23:55.025Z,101746
2018-11-14T11:26:23.843Z,101743
2018-11-14T11:28:52.673Z,101748
2018-11-14T11:31:21.506Z,101736
2018-11-14T11:33:50.345Z,101735
2018-11-14T11:36:19.942Z,101745
2018-11-14T11:38:49.606Z,101732
2018-11-14T11:41:18.412Z,101730
2018-11-14T11:43:47.244Z,101726
2018-11-14T11:46:16.102Z,101725
2018-11-14T11:48:44.963Z,101706
2018-11-14T11:51:13.841Z,101720
2018-11-14T11:53:43.376Z,101718
2018-11-14T11:56:12.257Z,101717
2018-11-14T11:58:41.106Z,101709
2018-11-14T12:01:09.946Z,101714
2018-11-14T12:03:38.776Z,101709
2018-11-14T12:06:07.815Z,101708
2018-11-14T12:08:36.461Z,101700
2018-11-14T12:11:05.300Z,101701
2018-11-14T12:13:34.198Z,101705
2018-11-14T12:16:03.048Z,101708
2018-11-14T12:18:32.552Z,101697
2018-11-14T12:21:01.394Z,101705
2018-11-14T12:23:30.287Z,101693
2018-11-14T12:25:59.090Z,101699
2018-11-14T12:28:27.930Z,101688
2018-11-14T12:30:56.916Z,101689
2018-11-14T12:33:25.615Z,101685
2018-11-14T12:35:54.445Z,101689
2018-11-14T12:38:23.281Z,101687
2018-11-14T12:40:52.125Z,101692
2018-11-14T12:43:20.969Z,101689
2018-11-14T12:45:49.879Z,101686
2018-11-14T12:48:18.675Z,101686
2018-11-14T12:50:48.258Z,101683
2018-11-14T12:53:17.096Z,101681
2018-11-14T12:55:45.940Z,101674
2018-11-14T12:58:14.776Z,101674
2018-11-14T13:00:43.612Z,101673
2018-11-14T13:03:12.458Z,101668
2018-11-14T13:05:41.288Z,101672
2018-11-14T13:08:10.120Z,101666
2018-11-14T13:10:38.964Z,101663
2018-11-14T13:13:07.800Z,101662
2018-11-14T13:15:36.650Z,101667
2018-11-14T13:18:05.506Z,101659
2018-11-14T13:20:34.353Z,101669
2018-11-14T13:23:03.920Z,101677
2018-11-14T13:25:32.768Z,101669
2018-11-14T13:28:01.676Z,101671
2018-11-14T13:30:31.218Z,101675
2018-11-14T13:33:00.094Z,101681
2018-11-14T13:35:28.934Z,101682
2018-11-14T13:37:57.784Z,101681
2018-11-14T13:40:26.620Z,101683
2018-11-14T13:42:55.509Z,101676
2018-11-14T13:45:24.323Z,101682
2018-11-14T13:47:53.178Z,101673
2018-11-14T13:50:22.132Z,101680
2018-11-14T13:52:50.852Z,101678
2018-11-14T13:55:20.459Z,101675
2018-11-14T13:57:49.300Z,101678
2018-11-14T14:00:18.133Z,101671
2018-11-14T14:02:47.722Z,101680
2018-11-14T14:05:17.295Z,101676
2018-11-14T14:07:46.138Z,101682
2018-11-14T14:10:15.722Z,101676
2018-11-14T14:12:44.547Z,101663
2018-11-14T14:15:13.390Z,101662
2018-11-14T14:17:42.234Z,101665
2018-11-14T14:20:11.077Z,101657
2018-11-14T14:22:39.933Z,101652
2018-11-14T14:25:08.779Z,101660
2018-11-14T14:27:37.614Z,101658
2018-11-14T14:30:06.444Z,101657
2018-11-14T14:32:35.278Z,101657
2018-11-14T14:35:04.110Z,101655
2018-11-14T14:37:32.959Z,101656
2018-11-14T14:40:01.816Z,101667
2018-11-14T14:42:30.653Z,101654
2018-11-14T14:44:59.495Z,101654
2018-11-14T14:47:28.335Z,101656
2018-11-14T14:49:57.166Z,101650
2018-11-14T14:52:26.744Z,101654
2018-11-14T14:54:55.578Z,101650
2018-11-14T14:57:24.417Z,101647
2018-11-14T14:59:53.276Z,101648
2018-11-14T15:02:22.096Z,101645
2018-11-14T15:04:50.932Z,101646
2018-11-14T15:07:19.799Z,101654
2018-11-14T15:09:49.386Z,101644
2018-11-14T15:12:18.219Z,101648
2018-11-14T15:14:47.064Z,101647
2018-11-14T15:17:15.933Z,101651
2018-11-14T15:19:44.772Z,101651
2018-11-14T15:22:13.615Z,101649
2018-11-14T15:24:42.453Z,101648
2018-11-14T15:27:11.356Z,101647
2018-11-14T15:29:40.148Z,101646
2018-11-14T15:32:08.958Z,101634
2018-11-14T15:34:37.809Z,101641
2018-11-14T15:37:06.649Z,101637
2018-11-14T15:39:35.480Z,101640
2018-11-14T15:42:04.326Z,101640
2018-11-14T15:44:33.192Z,101634
2018-11-14T15:47:02.017Z,101645
2018-11-14T15:49:30.866Z,101639
2018-11-14T15:51:59.718Z,101634
2018-11-14T15:54:29.310Z,101635
2018-11-14T15:56:58.141Z,101636
2018-11-14T15:59:26.980Z,101637
2018-11-14T16:01:56.569Z,101636
2018-11-14T16:04:25.414Z,101633
2018-11-14T16:06:54.259Z,101635
2018-11-14T16:09:23.085Z,101641
2018-11-14T16:11:52.664Z,101644
2018-11-14T16:14:21.498Z,101645
2018-11-14T16:16:50.341Z,101647
2018-11-14T16:19:19.182Z,101648
2018-11-14T16:21:48.023Z,101632
2018-11-14T16:24:16.914Z,101643
2018-11-14T16:26:45.717Z,101648
2018-11-14T16:29:15.290Z,101646
2018-11-14T16:31:44.248Z,101651
2018-11-14T16:34:12.983Z,101651
2018-11-14T16:36:41.826Z,101660
2018-11-14T16:39:10.670Z,101664
2018-11-14T16:41:39.523Z,101654
2018-11-14T16:44:08.372Z,101656
2018-11-14T16:46:37.217Z,101654
2018-11-14T16:49:06.073Z,101652
2018-11-14T16:51:35.743Z,101655
2018-11-14T16:54:04.575Z,101652
2018-11-14T16:56:33.495Z,101652
2018-11-14T16:59:02.329Z,101653
2018-11-14T17:01:31.178Z,101651
2018-11-14T17:04:00.033Z,101656
2018-11-14T17:06:28.877Z,101644
2018-11-14T17:08:58.451Z,101643
2018-11-14T17:11:27.285Z,101644
2018-11-14T17:13:56.897Z,101645
2018-11-14T17:16:25.756Z,101653
2018-11-14T17:18:54.594Z,101647
2018-11-14T17:21:23.433Z,101650
2018-11-14T17:23:52.283Z,101648
2018-11-14T17:26:21.181Z,101643
2018-11-14T17:28:49.952Z,101648
2018-11-14T17:31:18.809Z,101648
2018-11-14T17:33:48.401Z,101647
2018-11-14T17:36:17.238Z,101652
2018-11-14T17:38:46.070Z,101651
2018-11-14T17:41:14.911Z,101657
2018-11-14T17:43:43.744Z,101649
2018-11-14T17:46:12.593Z,101653
2018-11-14T17:48:41.419Z,101647
2018-11-14T17:51:10.255Z,101645
2018-11-14T17:53:39.093Z,101641
2018-11-14T17:56:07.935Z,101638
2018-11-14T17:58:36.784Z,101642
2018-11-14T18:01:05.664Z,101640
2018-11-14T18:03:34.447Z,101641
2018-11-14T18:06:03.370Z,101655
2018-11-14T18:08:32.952Z,101638
2018-11-14T18:11:01.784Z,101639
2018-11-14T18:13:30.640Z,101640
2018-11-14T18:15:59.506Z,101647
2018-11-14T18:18:28.312Z,101641
2018-11-14T18:20:57.167Z,101648
2018-11-14T18:23:26.048Z,101648
2018-11-14T18:25:54.840Z,101648
2018-11-14T18:28:23.693Z,101650
2018-11-14T18:30:53.271Z,101643
2018-11-14T18:33:22.114Z,101642
2018-11-14T18:35:50.958Z,101637
2018-11-14T18:38:19.805Z,101650
2018-11-14T18:40:48.635Z,101656
2018-11-14T18:43:17.501Z,101650
2018-11-14T18:45:46.383Z,101650
2018-11-14T18:48:15.925Z,101640
2018-11-14T18:50:44.764Z,101639
2018-11-14T18:53:13.596Z,101636
2018-11-14T18:55:42.437Z,101631
2018-11-14T18:58:11.282Z,101621
2018-11-14T19:00:40.898Z,101617
2018-11-14T19:03:09.758Z,101630
2018-11-14T19:05:38.607Z,101628
2018-11-14T19:08:07.445Z,101620
2018-11-14T19:10:36.285Z,101619
2018-11-14T19:13:05.144Z,101624
2018-11-14T19:15:33.987Z,101626
2018-11-14T19:18:02.823Z,101631
2018-11-14T19:20:31.680Z,101624
2018-11-14T19:23:00.668Z,101624
2018-11-14T19:25:29.514Z,101620
2018-11-14T19:27:58.347Z,101625
2018-11-14T19:30:27.241Z,101624
2018-11-14T19:32:56.041Z,101615
2018-11-14T19:35:24.902Z,101629
2018-11-14T19:37:53.753Z,101625
2018-11-14T19:40:22.601Z,101634
2018-11-14T19:42:51.439Z,101631
2018-11-14T19:45:20.306Z,101632
2018-11-14T19:47:49.129Z,101626
2018-11-14T19:50:18.039Z,101628
2018-11-14T19:52:46.856Z,101622
2018-11-14T19:55:15.747Z,101626
2018-11-14T19:57:44.571Z,101624
2018-11-14T20:00:13.424Z,101616
2018-11-14T20:02:42.277Z,101633
2018-11-14T20:05:11.113Z,101619
2018-11-14T20:07:39.950Z,101614
2018-11-14T20:10:08.776Z,101621
2018-11-14T20:12:37.817Z,101633
2018-11-14T20:15:06.632Z,101629
2018-11-14T20:17:35.491Z,101636
2018-11-14T20:20:04.334Z,101638
2018-11-14T20:22:33.173Z,101630
2018-11-14T20:25:02.032Z,101627
2018-11-14T20:27:30.877Z,101629
2018-11-14T20:29:59.759Z,101633
2018-11-14T20:32:28.612Z,101630
2018-11-14T20:34:58.217Z,101636
2018-11-14T20:37:28.700Z,101625
2018-11-14T20:39:56.636Z,101624
2018-11-14T20:42:25.477Z,101622
2018-11-14T20:44:54.304Z,101608
2018-11-14T20:47:23.149Z,101616
2018-11-14T20:49:51.988Z,101620
2018-11-14T20:52:20.833Z,101629
2018-11-14T20:54:49.683Z,101632
2018-11-14T20:57:18.529Z,101621
2018-11-14T20:59:48.116Z,101626
2018-11-14T21:02:17.535Z,101624
2018-11-14T21:04:47.113Z,101625
2018-11-14T21:07:15.956Z,101629
2018-11-14T21:09:44.839Z,101629
2018-11-14T21:12:13.688Z,101634
2018-11-14T21:14:42.559Z,101623
2018-11-14T21:17:11.393Z,101626
2018-11-14T21:19:40.244Z,101627
2018-11-14T21:22:09.076Z,101624
2018-11-14T21:24:38.666Z,101626
2018-11-14T21:27:07.510Z,101631
2018-11-14T21:29:36.418Z,101615
2018-11-14T21:32:05.979Z,101623
2018-11-14T21:34:34.792Z,101622
2018-11-14T21:37:03.625Z,101619
2018-11-14T21:39:32.475Z,101620
2018-11-14T21:42:01.303Z,101608
2018-11-14T21:44:30.217Z,101613
2018-11-14T21:46:59.071Z,101596
2018-11-14T21:49:27.898Z,101601
2018-11-14T21:51:56.736Z,101588
2018-11-14T21:54:25.565Z,101593
2018-11-14T21:56:54.435Z,101582
2018-11-14T21:59:23.226Z,101589
2018-11-14T22:01:52.804Z,101591
2018-11-14T22:04:21.640Z,101589
2018-11-14T22:06:50.482Z,101584
2018-11-14T22:09:19.356Z,101582
2018-11-14T22:11:48.192Z,101583
2018-11-14T22:14:17.032Z,101582
2018-11-14T22:16:45.877Z,101584
2018-11-14T22:19:15.467Z,101581
2018-11-14T22:21:44.294Z,101596
2018-11-14T22:24:13.157Z,101594
2018-11-14T22:26:41.997Z,101591
2018-11-14T22:29:10.840Z,101596
2018-11-14T22:31:39.726Z,101600
2018-11-14T22:34:08.521Z,101596
2018-11-14T22:36:37.367Z,101598
2018-11-14T22:39:06.201Z,101604
2018-11-14T22:41:35.789Z,101606
2018-11-14T22:44:04.642Z,101591
2018-11-14T22:46:33.470Z,101604
2018-11-14T22:49:02.300Z,101602
2018-11-14T22:51:31.136Z,101602
2018-11-14T22:53:59.969Z,101599
2018-11-14T22:56:28.801Z,101596
2018-11-14T22:58:57.657Z,101603
2018-11-14T23:01:26.507Z,101606
2018-11-14T23:03:55.353Z,101609
2018-11-14T23:06:24.202Z,101603
2018-11-14T23:08:53.781Z,101603
2018-11-14T23:11:22.620Z,101608
2018-11-14T23:13:51.459Z,101604
2018-11-14T23:16:20.292Z,101606
2018-11-14T23:18:49.132Z,101599
2018-11-14T23:21:18.712Z,101603
2018-11-14T23:23:47.565Z,101604
2018-11-14T23:26:16.415Z,101605
2018-11-14T23:28:45.253Z,101615
2018-11-14T23:31:14.092Z,101609
2018-11-14T23:33:42.946Z,101620
2018-11-14T23:36:11.780Z,101606
2018-11-14T23:38:40.616Z,101599
2018-11-14T23:41:09.676Z,101605
2018-11-14T23:43:38.274Z,101602
2018-11-14T23:46:07.112Z,101607
2018-11-14T23:48:35.948Z,101606
2018-11-14T23:51:05.616Z,101605
2018-11-14T23:53:34.413Z,101608
2018-11-14T23:56:03.261Z,101614
2018-11-14T23:58:32.098Z,101603
